Time,TemperatureF,DewpointF,PressureIn,WindDirection,WindDirectionDegrees,WindSpeedMPH,WindSpeedGustMPH,Humidity,HourlyPrecipIn,Conditions,Clouds,dailyrainin,SoftwareType,DateUTC
2013-12-04 00:22:00,48.0,47.0,-100.00,South,190,0.0,0.0,96,-99.99,,,-99.99,,2013-12-04 06:22:00,
2013-12-04 00:52:00,47.0,45.0,-100.00,ESE,105,0.0,0.0,96,-99.99,,,-99.99,,2013-12-04 06:52:00,
2013-12-04 01:22:00,46.0,45.0,-100.00,SE,145,0.0,0.0,96,-99.99,,,-99.99,,2013-12-04 07:22:00,
2013-12-04 01:52:00,46.0,45.0,-100.00,East,100,0.0,0.0,96,-99.99,,,-99.99,,2013-12-04 07:52:00,
2013-12-04 02:22:00,46.0,45.0,-100.00,ESE,110,0.0,0.0,96,-99.99,,,-99.99,,2013-12-04 08:22:00,
2013-12-04 02:52:00,46.0,45.0,-100.00,SE,125,0.0,0.0,96,-99.99,,,-99.99,,2013-12-04 08:52:00,
2013-12-04 03:22:00,46.0,45.0,-100.00,ESE,105,0.0,0.0,96,-99.99,,,-99.99,,2013-12-04 09:22:00,
2013-12-04 03:53:00,46.0,45.0,-100.00,ESE,120,0.0,0.0,96,-99.99,,,-99.99,,2013-12-04 09:53:00,
2013-12-04 04:53:00,47.0,46.0,-100.00,SSE,165,0.0,0.0,96,-99.99,,,-99.99,,2013-12-04 10:53:00,
2013-12-04 05:22:00,48.0,47.0,-100.00,South,170,0.0,0.0,96,-99.99,,,-99.99,,2013-12-04 11:22:00,
2013-12-04 05:53:00,48.0,47.0,-100.00,SSE,160,0.0,0.0,96,-99.99,,,-99.99,,2013-12-04 11:53:00,
2013-12-04 06:22:00,48.0,47.0,-100.00,SE,140,0.0,0.0,96,-99.99,,,-99.99,,2013-12-04 12:22:00,
2013-12-04 06:52:00,49.0,48.0,-100.00,SSE,165,0.0,0.0,96,-99.99,,,-99.99,,2013-12-04 12:52:00,
2013-12-04 07:22:00,49.0,48.0,-100.00,SSE,160,0.0,0.0,96,-99.99,,,-99.99,,2013-12-04 13:22:00,
2013-12-04 07:52:00,49.0,48.0,-100.00,SSE,160,0.0,0.0,95,-99.99,,,-99.99,,2013-12-04 13:52:00,
2013-12-04 08:22:00,50.0,48.0,-100.00,SSE,165,0.0,0.0,95,-99.99,,,-99.99,,2013-12-04 14:22:00,
2013-12-04 08:52:00,50.0,49.0,-100.00,SW,230,0.0,0.0,95,-99.99,,,-99.99,,2013-12-04 14:52:00,
2013-12-04 09:22:00,51.0,50.0,-100.00,South,185,0.0,0.0,95,-99.99,,,-99.99,,2013-12-04 15:22:00,
2013-12-04 09:53:00,51.0,50.0,-100.00,South,170,0.0,0.0,95,-99.99,,,-99.99,,2013-12-04 15:53:00,
2013-12-04 10:23:00,53.0,51.0,-100.00,SE,130,0.0,0.0,95,-99.99,,,-99.99,,2013-12-04 16:23:00,
2013-12-04 10:53:00,53.0,52.0,-100.00,SSE,150,0.0,0.0,95,-99.99,,,-99.99,,2013-12-04 16:53:00,
2013-12-04 11:22:00,54.0,52.0,-100.00,SSE,165,0.0,0.0,95,-99.99,,,-99.99,,2013-12-04 17:22:00,
2013-12-04 11:53:00,54.0,53.0,-100.00,South,175,0.0,0.0,95,-99.99,,,-99.99,,2013-12-04 17:53:00,
2013-12-04 12:22:00,55.0,53.0,-100.00,South,185,0.0,0.0,95,-99.99,,,-99.99,,2013-12-04 18:22:00,
2013-12-04 12:52:00,55.0,53.0,-100.00,SSW,200,0.0,0.0,95,-99.99,,,-99.99,,2013-12-04 18:52:00,
2013-12-04 13:22:00,55.0,54.0,-100.00,SSW,195,0.0,0.0,96,-99.99,,,-99.99,,2013-12-04 19:22:00,
2013-12-04 13:52:00,55.0,54.0,-100.00,SW,215,0.0,0.0,96,-99.99,,,-99.99,,2013-12-04 19:52:00,
2013-12-04 14:22:00,56.0,54.0,-100.00,SW,230,0.0,0.0,96,-99.99,,,-99.99,,2013-12-04 20:22:00,
2013-12-04 14:52:00,56.0,55.0,-100.00,SW,225,0.0,0.0,96,-99.99,,,-99.99,,2013-12-04 20:52:00,
2013-12-04 15:22:00,58.0,56.0,-100.00,SW,220,0.0,0.0,95,-99.99,,,-99.99,,2013-12-04 21:22:00,
2013-12-04 15:54:00,59.0,57.0,-100.00,SW,235,0.0,0.0,93,-99.99,,,-99.99,,2013-12-04 21:54:00,
2013-12-04 16:23:00,59.0,56.0,-100.00,SW,220,0.0,0.0,90,-99.99,,,-99.99,,2013-12-04 22:23:00,
2013-12-04 16:53:00,58.0,55.0,-100.00,SW,225,0.0,0.0,90,-99.99,,,-99.99,,2013-12-04 22:53:00,
2013-12-04 17:22:00,56.0,54.0,-100.00,WSW,250,0.0,0.0,93,-99.99,,,-99.99,,2013-12-04 23:22:00,
2013-12-04 17:53:00,56.0,49.0,-100.00,WSW,245,0.0,0.0,75,-99.99,,,-99.99,,2013-12-04 23:53:00,
2013-12-04 18:22:00,56.0,49.0,-100.00,WSW,255,0.0,0.0,77,-99.99,,,-99.99,,2013-12-05 00:22:00,
2013-12-04 18:52:00,53.0,49.0,-100.00,WSW,255,0.0,0.0,87,-99.99,,,-99.99,,2013-12-05 00:52:00,
2013-12-04 19:22:00,50.0,47.0,-100.00,WSW,255,0.0,0.0,90,-99.99,,,-99.99,,2013-12-05 01:22:00,
2013-12-04 19:52:00,46.0,44.0,-100.00,WSW,250,0.0,0.0,90,-99.99,,,-99.99,,2013-12-05 01:52:00,
2013-12-04 20:22:00,45.0,42.0,-100.00,West,260,0.0,0.0,91,-99.99,,,-99.99,,2013-12-05 02:22:00,
2013-12-04 21:22:00,42.0,40.0,-100.00,West,270,0.0,0.0,91,-99.99,,,-99.99,,2013-12-05 03:22:00,
2013-12-04 21:54:00,40.0,37.0,-100.00,West,265,0.0,0.0,87,-99.99,,,-99.99,,2013-12-05 03:54:00,
2013-12-04 22:23:00,39.0,36.0,-100.00,West,260,0.0,0.0,87,-99.99,,,-99.99,,2013-12-05 04:23:00,
2013-12-04 22:53:00,38.0,35.0,-100.00,West,260,0.0,0.0,89,-99.99,,,-99.99,,2013-12-05 04:53:00,
2013-12-04 23:23:00,36.0,33.0,-100.00,WSW,250,0.0,0.0,89,-99.99,,,-99.99,,2013-12-05 05:23:00,
2013-12-04 23:53:00,35.0,31.0,-100.00,West,260,0.0,0.0,88,-99.99,,,-99.99,,2013-12-05 05:53:00,